Map

Track Data

SID SEASON NUMBER BASIN SUBBASIN NAME ISO_TIME NATURE LAT LON WMO_WIND WMO_PRES WMO_AGENCY TRACK_TYPE DIST2LAND LANDFALL IFLAG USA_AGENCY USA_ATCF_ID USA_LAT USA_LON USA_RECORD USA_STATUS USA_WIND USA_PRES USA_SSHS USA_R34_NE USA_R34_SE USA_R34_SW USA_R34_NW USA_R50_NE USA_R50_SE USA_R50_SW USA_R50_NW USA_R64_NE USA_R64_SE USA_R64_SW USA_R64_NW USA_POCI USA_ROCI USA_RMW USA_EYE TOKYO_LAT TOKYO_LON TOKYO_GRADE TOKYO_WIND TOKYO_PRES TOKYO_R50_DIR TOKYO_R50_LONG TOKYO_R50_SHORT TOKYO_R30_DIR TOKYO_R30_LONG TOKYO_R30_SHORT TOKYO_LAND CMA_LAT CMA_LON CMA_CAT CMA_WIND CMA_PRES HKO_LAT HKO_LON HKO_CAT HKO_WIND HKO_PRES NEWDELHI_LAT NEWDELHI_LON NEWDELHI_GRADE NEWDELHI_WIND NEWDELHI_PRES NEWDELHI_CI NEWDELHI_DP NEWDELHI_POCI REUNION_LAT REUNION_LON REUNION_TYPE REUNION_WIND REUNION_PRES REUNION_TNUM REUNION_CI REUNION_RMW REUNION_R34_NE REUNION_R34_SE REUNION_R34_SW REUNION_R34_NW REUNION_R50_NE REUNION_R50_SE REUNION_R50_SW REUNION_R50_NW REUNION_R64_NE REUNION_R64_SE REUNION_R64_SW REUNION_R64_NW BOM_LAT BOM_LON BOM_TYPE BOM_WIND BOM_PRES BOM_TNUM BOM_CI BOM_RMW BOM_R34_NE BOM_R34_SE BOM_R34_SW BOM_R34_NW BOM_R50_NE BOM_R50_SE BOM_R50_SW BOM_R50_NW BOM_R64_NE BOM_R64_SE BOM_R64_SW BOM_R64_NW BOM_ROCI BOM_POCI BOM_EYE BOM_POS_METHOD BOM_PRES_METHOD NADI_LAT NADI_LON NADI_CAT NADI_WIND NADI_PRES WELLINGTON_LAT WELLINGTON_LON WELLINGTON_WIND WELLINGTON_PRES DS824_LAT DS824_LON DS824_STAGE DS824_WIND DS824_PRES TD9636_LAT TD9636_LON TD9636_STAGE TD9636_WIND TD9636_PRES TD9635_LAT TD9635_LON TD9635_WIND TD9635_PRES TD9635_ROCI NEUMANN_LAT NEUMANN_LON NEUMANN_CLASS NEUMANN_WIND NEUMANN_PRES MLC_LAT MLC_LON MLC_CLASS MLC_WIND MLC_PRES USA_GUST BOM_GUST BOM_GUST_PER REUNION_GUST REUNION_GUST_PER USA_SEAHGT USA_SEARAD_NE USA_SEARAD_SE USA_SEARAD_SW USA_SEARAD_NW STORM_SPEED STORM_DIR
1937252N18306 1937 41 NA NA NOT_NAMED 1937-09-09 00:00:00 TS 17.9000 -54.5000 45 hurdat_atl main 1067 1060 O_____________ hurdat_atl AL041937 17.9000 -54.5000 TS 45 0 6 310
1937252N18306 1937 41 NA NA NOT_NAMED 1937-09-09 03:00:00 TS 18.1051 -54.7574 main 1063 1063 P_____________ AL041937 18.1051 -54.7574 TS 47 0 6 310
1937252N18306 1937 41 NA NA NOT_NAMED 1937-09-09 06:00:00 TS 18.3000 -55.0000 50 hurdat_atl main 1068 1061 O_____________ hurdat_atl AL041937 18.3000 -55.0000 TS 50 0 6 311
1937252N18306 1937 41 NA NA NOT_NAMED 1937-09-09 09:00:00 TS 18.4850 -55.2151 main 1073 1066 P_____________ AL041937 18.4850 -55.2151 TS 52 0 6 317
1937252N18306 1937 41 NA NA NOT_NAMED 1937-09-09 12:00:00 TS 18.7000 -55.4000 55 hurdat_atl main 1075 1065 O_____________ hurdat_atl AL041937 18.7000 -55.4000 TS 55 0 6 327
1937252N18306 1937 41 NA NA NOT_NAMED 1937-09-09 15:00:00 TS 18.9850 -55.5575 main 1055 1045 P_____________ AL041937 18.9850 -55.5575 TS 57 0 7 335
1937252N18306 1937 41 NA NA NOT_NAMED 1937-09-09 18:00:00 TS 19.3000 -55.7000 60 hurdat_atl main 1046 1036 O_____________ hurdat_atl AL041937 19.3000 -55.7000 TS 60 0 7 336
1937252N18306 1937 41 NA NA NOT_NAMED 1937-09-09 21:00:00 TS 19.6000 -55.8501 main 1028 1020 P_____________ AL041937 19.6000 -55.8501 TS 62 0 7 335
1937252N18306 1937 41 NA NA NOT_NAMED 1937-09-10 00:00:00 TS 19.9000 -56.0000 65 hurdat_atl main 1022 1013 O_____________ hurdat_atl AL041937 19.9000 -56.0000 HU 65 1 7 336
1937252N18306 1937 41 NA NA NOT_NAMED 1937-09-10 03:00:00 TS 20.2075 -56.1426 main 1016 1000 P_____________ AL041937 20.2075 -56.1426 HU 67 1 7 335
1937252N18306 1937 41 NA NA NOT_NAMED 1937-09-10 06:00:00 TS 20.5000 -56.3000 70 hurdat_atl main 1002 987 O_____________ hurdat_atl AL041937 20.5000 -56.3000 HU 70 1 6 329
1937252N18306 1937 41 NA NA NOT_NAMED 1937-09-10 09:00:00 TS 20.7500 -56.4926 main 990 972 P_____________ AL041937 20.7500 -56.4926 HU 70 1 6 323
1937252N18306 1937 41 NA NA NOT_NAMED 1937-09-10 12:00:00 TS 21.0000 -56.7000 70 hurdat_atl main 975 962 O_____________ hurdat_atl AL041937 21.0000 -56.7000 HU 70 1 7 325
1937252N18306 1937 41 NA NA NOT_NAMED 1937-09-10 15:00:00 TS 21.2850 -56.9001 main 965 953 P_____________ AL041937 21.2850 -56.9001 HU 72 1 7 328
1937252N18306 1937 41 NA NA NOT_NAMED 1937-09-10 18:00:00 TS 21.6000 -57.1000 75 hurdat_atl main 957 950 O_____________ hurdat_atl AL041937 21.6000 -57.1000 HU 75 1 7 331
1937252N18306 1937 41 NA NA NOT_NAMED 1937-09-10 21:00:00 TS 21.9349 -57.2927 main 950 945 P_____________ AL041937 21.9349 -57.2927 HU 77 1 8 332
1937252N18306 1937 41 NA NA NOT_NAMED 1937-09-11 00:00:00 TS 22.3000 -57.5000 80 hurdat_atl main 950 945 O_____________ hurdat_atl AL041937 22.3000 -57.5000 HU 80 1 9 331
1937252N18306 1937 41 NA NA NOT_NAMED 1937-09-11 03:00:00 TS 22.6850 -57.7426 main 952 942 P_____________ AL041937 22.6850 -57.7426 HU 80 1 9 330
1937252N18306 1937 41 NA NA NOT_NAMED 1937-09-11 06:00:00 TS 23.1000 -58.0000 80 hurdat_atl main 948 946 O_____________ hurdat_atl AL041937 23.1000 -58.0000 HU 80 1 10 331
1937252N18306 1937 41 NA NA NOT_NAMED 1937-09-11 09:00:00 TS 23.5274 -58.2428 main 956 953 P_____________ AL041937 23.5274 -58.2428 HU 80 1 10 333
1937252N18306 1937 41 NA NA NOT_NAMED 1937-09-11 12:00:00 TS 24.0000 -58.5000 80 hurdat_atl main 965 965 O_____________ hurdat_atl AL041937 24.0000 -58.5000 HU 80 1 11 333
1937252N18306 1937 41 NA NA NOT_NAMED 1937-09-11 15:00:00 TS 24.5350 -58.8000 main 979 979 P_____________ AL041937 24.5350 -58.8000 HU 80 1 12 334
1937252N18306 1937 41 NA NA NOT_NAMED 1937-09-11 18:00:00 TS 25.1000 -59.1000 80 hurdat_atl main 1005 1005 O_____________ hurdat_atl AL041937 25.1000 -59.1000 HU 80 1 12 335
1937252N18306 1937 41 NA NA NOT_NAMED 1937-09-11 21:00:00 TS 25.6425 -59.3653 main 1027 1027 P_____________ AL041937 25.6425 -59.3653 HU 80 1 12 338
1937252N18306 1937 41 NA NA NOT_NAMED 1937-09-12 00:00:00 TS 26.2000 -59.6000 80 hurdat_atl main 1067 1067 O_____________ hurdat_atl AL041937 26.2000 -59.6000 HU 80 1 12 341
1937252N18306 1937 41 NA NA NOT_NAMED 1937-09-12 03:00:00 TS 26.7849 -59.8078 main 1111 1111 P_____________ AL041937 26.7849 -59.8078 HU 82 1 13 343
1937252N18306 1937 41 NA NA NOT_NAMED 1937-09-12 06:00:00 TS 27.4000 -60.0000 85 hurdat_atl main 1157 1157 O_____________ hurdat_atl AL041937 27.4000 -60.0000 HU 85 2 13 345
1937252N18306 1937 41 NA NA NOT_NAMED 1937-09-12 09:00:00 TS 28.0349 -60.1855 main 1206 1206 P_____________ AL041937 28.0349 -60.1855 HU 85 2 14 345
1937252N18306 1937 41 NA NA NOT_NAMED 1937-09-12 12:00:00 TS 28.7000 -60.4000 85 hurdat_atl main 1266 1266 O_____________ hurdat_atl AL041937 28.7000 -60.4000 HU 85 2 14 343
1937252N18306 1937 41 NA NA NOT_NAMED 1937-09-12 15:00:00 TS 29.3849 -60.6631 main 1325 1325 P_____________ AL041937 29.3849 -60.6631 HU 82 1 15 340
1937252N18306 1937 41 NA NA NOT_NAMED 1937-09-12 18:00:00 TS 30.1000 -61.0000 80 hurdat_atl main 1387 1387 O_____________ hurdat_atl AL041937 30.1000 -61.0000 HU 80 1 16 336
1937252N18306 1937 41 NA NA NOT_NAMED 1937-09-12 21:00:00 TS 30.8350 -61.4204 main 1419 1334 P_____________ AL041937 30.8350 -61.4204 HU 77 1 17 333
1937252N18306 1937 41 NA NA NOT_NAMED 1937-09-13 00:00:00 TS 31.6000 -61.9000 75 hurdat_atl main 1334 1243 O_____________ hurdat_atl AL041937 31.6000 -61.9000 HU 75 1 18 332
1937252N18306 1937 41 NA NA NOT_NAMED 1937-09-13 03:00:00 TS 32.3775 -62.4006 main 1233 1133 P_____________ AL041937 32.3775 -62.4006 HU 72 1 18 332
1937252N18306 1937 41 NA NA NOT_NAMED 1937-09-13 06:00:00 TS 33.2000 -62.9000 70 hurdat_atl main 1133 1038 O_____________ hurdat_atl AL041937 33.2000 -62.9000 HU 70 1 19 334
1937252N18306 1937 41 NA NA NOT_NAMED 1937-09-13 09:00:00 TS 34.0399 -63.3664 main 1033 929 P_____________ AL041937 34.0399 -63.3664 HU 67 1 20 337
1937252N18306 1937 41 NA NA NOT_NAMED 1937-09-13 12:00:00 TS 35.0000 -63.8000 65 hurdat_atl main 919 799 O_____________ hurdat_atl AL041937 35.0000 -63.8000 HU 65 1 22 341
1937252N18306 1937 41 NA NA NOT_NAMED 1937-09-13 15:00:00 TS 36.1325 -64.2229 main 799 672 P_____________ AL041937 36.1325 -64.2229 HU 62 0 25 345
1937252N18306 1937 41 NA NA NOT_NAMED 1937-09-13 18:00:00 TS 37.4000 -64.6000 60 hurdat_atl main 664 535 O_____________ hurdat_atl AL041937 37.4000 -64.6000 TS 60 0 27 348
1937252N18306 1937 41 NA NA NOT_NAMED 1937-09-13 21:00:00 TS 38.7275 -64.9448 main 535 389 P_____________ AL041937 38.7275 -64.9448 TS 60 0 27 350
1937252N18306 1937 41 NA NA NOT_NAMED 1937-09-14 00:00:00 TS 40.1000 -65.2000 60 hurdat_atl main 378 233 O_____________ hurdat_atl AL041937 40.1000 -65.2000 TS 60 0 27 354
1937252N18306 1937 41 NA NA NOT_NAMED 1937-09-14 03:00:00 TS 41.4498 -65.3322 main 233 89 P_____________ AL041937 41.4498 -65.3322 TS 57 0 27 357
1937252N18306 1937 41 NA NA NOT_NAMED 1937-09-14 06:00:00 ET 42.8000 -65.4000 55 hurdat_atl main 78 0 O_____________ hurdat_atl AL041937 42.8000 -65.4000 EX 55 -4 27 357
1937252N18306 1937 41 NA NA NOT_NAMED 1937-09-14 09:00:00 ET 44.1575 -65.5283 main 0 0 P_____________ AL041937 44.1575 -65.5283 EX 50 -4 27 357
1937252N18306 1937 41 NA NA NOT_NAMED 1937-09-14 12:00:00 ET 45.5000 -65.6000 45 hurdat_atl main 0 0 O_____________ hurdat_atl AL041937 45.5000 -65.6000 EX 45 -4 27 359
1937252N18306 1937 41 NA NA NOT_NAMED 1937-09-14 15:00:00 ET 46.8100 -65.5429 main 0 0 P_____________ AL041937 46.8100 -65.5429 EX 40 -4 26 3
1937252N18306 1937 41 NA NA NOT_NAMED 1937-09-14 18:00:00 ET 48.1000 -65.4000 35 hurdat_atl main 0 O_____________ hurdat_atl AL041937 48.1000 -65.4000 EX 35 -4 26 4

About IBTrACS Database

This database is a web-friendly format of International Best Track Archive for Climate Stewardship (IBTrACS), a global best track data archive curated by NOAA dating back to 1842.

Updated: 2021-12-03